ADDS METAR Data INFO
IDs: Format: Raw Decoded Include TAF

Data at: 0437 UTC 28 Jul 2017

KPIL 280353Z AUTO 14011KT 10SM CLR 28/25 A2995 RMK AO2 SLP143 T02830250
KPIL 280253Z AUTO 14009KT 10SM FEW017 28/25 A2996 RMK AO2 SLP144 T02830250 53003
KPIL 280153Z AUTO 14012KT 10SM CLR 28/24 A2996 RMK AO2 SLP143 T02830244
KPIL 280053Z AUTO 14014KT 10SM CLR 29/24 A2995 RMK AO2 SLP141 T02940244
KPIL 272353Z AUTO 13013KT 10SM CLR 31/24 A2995 RMK AO2 SLP141 T03110244 10333 20311 56011
KPIL 272253Z AUTO 13014KT 10SM CLR 32/24 A2995 RMK AO2 SLP142 T03220239
KPIL 272153Z AUTO 11018KT 10SM CLR 32/24 A2997 RMK AO2 SLP148 T03220244
KPIL 272053Z AUTO 10016KT 10SM CLR 33/24 A2998 RMK AO2 SLP152 T03280244 58015
KPIL 271953Z AUTO 10017G23KT 10SM CLR 33/24 A3000 RMK AO2 SLP159 T03280244
KPIL 271853Z AUTO 10017KT 10SM CLR 32/24 A3002 RMK AO2 SLP164 T03220239
KPIL 271753Z AUTO 10017KT 10SM FEW041 33/24 A3003 RMK AO2 SLP167 T03280239 10339 20250 58003
KPIL 271653Z AUTO 13011KT 10SM FEW041 33/24 A3003 RMK AO2 SLP168 T03280239
KPIL 271553Z AUTO 17011KT 10SM CLR 33/23 A3003 RMK AO2 SLP169 T03280228
KPIL 271453Z AUTO 16009KT 10SM CLR 31/23 A3003 RMK AO2 SLP170 T03060233 53011
KPIL 271353Z AUTO 17007KT 10SM CLR 28/24 A3002 RMK AO2 SLP165 T02780239
KPIL 271253Z AUTO 17004KT 10SM CLR 27/25 A3001 RMK AO2 SLP162 T02670250
KPIL 271153Z AUTO 16005KT 9SM CLR 25/24 A3000 RMK AO2 SLP159 T02500244 10261 20244 55002
KPIL 271053Z AUTO 15003KT 10SM CLR 25/24 A3000 RMK AO2 SLP157 T02500244
KPIL 270953Z AUTO 17005KT 10SM FEW012 25/24 A3000 RMK AO2 SLP157 T02500239
KPIL 270942Z AUTO 16006KT 10SM SCT012 25/24 A3000 RMK AO2 T02500239
KPIL 270932Z AUTO 16004KT 10SM BKN012 25/23 A3001 RMK AO2 T02500233
KPIL 270853Z AUTO 12003KT 10SM CLR 25/23 A3001 RMK AO2 SLP160 T02500233 58006
KPIL 270753Z AUTO 19003KT 10SM CLR 26/23 A3001 RMK AO2 SLP162 T02560233
KPIL 270653Z AUTO 19003KT 10SM CLR 25/23 A3003 RMK AO2 SLP168 T02500233
KPIL 270553Z AUTO 19003KT 10SM CLR 27/24 A3002 RMK AO2 SLP166 T02670239 10289 20267 403500256 58005
KPIL 270453Z AUTO 16008KT 10SM CLR 27/24 A3005 RMK AO2 SLP176 T02720239
KPIL 270353Z AUTO 15010KT 10SM CLR 28/23 A3006 RMK AO2 SLP178 T02780228
KPIL 270253Z AUTO 15013KT 10SM CLR 28/25 A3004 RMK AO2 SLP171 T02830250 53012
KPIL 270153Z AUTO 15010KT 10SM CLR 28/24 A3003 RMK AO2 SLP167 T02830244
KPIL 270053Z AUTO 13013KT 10SM CLR 29/23 A3001 RMK AO2 SLP162 T02890233
KPIL 262353Z AUTO 12013KT 10SM CLR 29/24 A3000 RMK AO2 SLP160 60000 T02940244 10333 20267 56006
KPIL 262253Z AUTO 09015KT 10SM CLR 29/24 A3001 RMK AO2 SLP160 T02940239
KPIL 262153Z AUTO 10012KT 10SM CLR 30/24 A3001 RMK AO2 SLP163 T03000239
KPIL 262053Z AUTO 12010KT 9SM CLR 31/24 A3002 RMK AO2 RAB17E28 SLP165 P0000 60000 T03060239 58012
KPIL 262031Z AUTO 09006KT 10SM FEW015 SCT021 29/25 A3003 RMK AO2 RAB17E28 P0000 T02940250
KPIL 261953Z AUTO 01006KT 10SM BKN018 BKN026 BKN034 27/23 A3007 RMK AO2 RAE1855 SLP183 P0000 T02670233
KPIL 261936Z AUTO 35011KT 10SM BKN016 BKN043 27/23 A3008 RMK AO2 LTG DSNT NW RAE1855 P0000 T02720233
KPIL 261912Z AUTO 01011KT 350V070 8SM VCTS SCT041 29/26 A3008 RMK AO2 LTG DSNT W-N RAE1855 PRESRR P0000 T02940256
KPIL 261905Z AUTO 11011KT 8SM SCT039 29/26 A3006 RMK AO2 LTG DSNT W-N RAE1855 P0000 T02940261
KPIL 261853Z AUTO 13016KT 7SM VCTS -RA SCT039 BKN050 31/26 A3005 RMK AO2 PK WND 16028/1828 LTG DSNT E AND W AND NW SLP176 P0000 T03060261
KPIL 261841Z AUTO 17009G20KT 7SM VCTS -RA BKN039 BKN049 BKN100 31/23 A3006 RMK AO2 PK WND 16028/1828 LTG DSNT ALQDS P0000 T03110233
KPIL 261753Z AUTO 14012G19KT 7SM -RA FEW026 SCT060 SCT085 31/27 A3006 RMK AO2 LTG DSNT ALQDS RAB42 SLP177 P0000 60000 T03060267 10350 20256 58006
KPIL 261653Z AUTO 13014G21KT 10SM SCT036 SCT045 34/24 A3007 RMK AO2 LTG DSNT NW SLP182 T03440239